createdAt,value
2018-11-05T00:00:19.809Z,10.20
2018-11-05T00:02:50.825Z,10.20
2018-11-05T00:05:20.208Z,11.20
2018-11-05T00:07:49.376Z,9.57
2018-11-05T00:10:18.428Z,10.07
2018-11-05T00:12:47.538Z,9.77
2018-11-05T00:15:16.607Z,9.53
2018-11-05T00:17:45.723Z,8.87
2018-11-05T00:20:14.881Z,10.53
2018-11-05T00:22:44.081Z,9.40
2018-11-05T00:25:13.790Z,9.70
2018-11-05T00:27:43.260Z,8.87
2018-11-05T00:30:13.712Z,7.60
2018-11-05T00:32:43.224Z,7.30
2018-11-05T00:35:12.553Z,5.70
2018-11-05T00:37:41.649Z,5.33
2018-11-05T00:40:15.828Z,5.00
2018-11-05T00:42:45.779Z,4.03
2018-11-05T00:45:15.388Z,3.70
2018-11-05T00:47:44.939Z,3.40
2018-11-05T00:50:15.513Z,3.40
2018-11-05T00:52:44.737Z,2.77
2018-11-05T00:55:14.109Z,2.50
2018-11-05T00:57:43.186Z,2.83
2018-11-05T01:00:15.311Z,2.30
2018-11-05T01:02:44.495Z,2.37
2018-11-05T01:05:15.122Z,2.70
2018-11-05T01:07:45.057Z,2.70
2018-11-05T01:10:15.220Z,2.93
2018-11-05T01:12:44.461Z,2.90
2018-11-05T01:15:14.707Z,2.57
2018-11-05T01:17:43.786Z,2.37
2018-11-05T01:20:14.094Z,2.57
2018-11-05T01:22:43.158Z,2.93
2018-11-05T01:25:12.349Z,3.00
2018-11-05T01:27:41.428Z,2.60
2018-11-05T01:30:11.985Z,3.17
2018-11-05T01:32:41.204Z,2.93
2018-11-05T01:35:12.239Z,3.20
2018-11-05T01:37:41.517Z,3.30
2018-11-05T01:40:13.114Z,3.07
2018-11-05T01:42:42.373Z,2.90
2018-11-05T01:45:13.492Z,3.57
2018-11-05T01:47:43.283Z,3.37
2018-11-05T01:50:14.231Z,2.90
2018-11-05T01:52:44.034Z,2.97
2018-11-05T01:55:13.289Z,2.90
2018-11-05T01:57:42.625Z,2.93
2018-11-05T02:00:14.664Z,3.27
2018-11-05T02:02:44.259Z,3.10
2018-11-05T02:05:13.360Z,2.93
2018-11-05T02:07:43.719Z,3.23
2018-11-05T02:10:15.289Z,2.23
2018-11-05T02:12:44.440Z,2.77
2018-11-05T02:15:13.768Z,3.50
2018-11-05T02:17:44.944Z,2.97
2018-11-05T02:20:15.103Z,2.50
2018-11-05T02:22:44.265Z,2.20
2018-11-05T02:25:14.003Z,2.00
2018-11-05T02:27:43.366Z,1.80
2018-11-05T02:30:15.133Z,2.00
2018-11-05T02:32:44.177Z,2.40
2018-11-05T02:35:14.130Z,2.20
2018-11-05T02:37:43.978Z,2.50
2018-11-05T02:40:14.030Z,2.30
2018-11-05T02:42:43.671Z,2.17
2018-11-05T02:45:13.883Z,2.60
2018-11-05T02:47:43.110Z,2.67
2018-11-05T02:50:13.143Z,3.10
2018-11-05T02:52:43.198Z,3.03
2018-11-05T02:55:12.388Z,2.77
2018-11-05T02:57:41.475Z,2.73
2018-11-05T03:00:13.870Z,2.77
2018-11-05T03:02:43.148Z,2.83
2018-11-05T03:05:15.146Z,2.90
2018-11-05T03:07:45.050Z,3.60
2018-11-05T03:10:14.432Z,3.53
2018-11-05T03:12:44.323Z,3.03
2018-11-05T03:15:14.665Z,2.93
2018-11-05T03:17:43.770Z,2.80
2018-11-05T03:20:14.008Z,2.90
2018-11-05T03:22:43.643Z,2.90
2018-11-05T03:25:12.752Z,3.30
2018-11-05T03:27:42.218Z,3.40
2018-11-05T03:30:14.458Z,3.90
2018-11-05T03:32:43.614Z,3.57
2018-11-05T03:35:13.601Z,3.53
2018-11-05T03:37:43.597Z,3.60
2018-11-05T03:40:13.304Z,3.30
2018-11-05T03:42:42.989Z,3.33
2018-11-05T03:45:14.471Z,3.37
2018-11-05T03:47:43.836Z,4.03
2018-11-05T03:50:14.633Z,4.17
2018-11-05T03:52:44.521Z,4.33
2018-11-05T03:55:14.138Z,4.00
2018-11-05T03:57:43.187Z,3.80
2018-11-05T04:00:14.040Z,4.17
2018-11-05T04:02:43.152Z,3.57
2018-11-05T04:05:12.229Z,4.37
2018-11-05T04:07:41.338Z,3.70
2018-11-05T04:10:11.608Z,3.50
2018-11-05T04:12:40.706Z,3.30
2018-11-05T04:15:10.422Z,2.80
2018-11-05T04:17:39.524Z,2.80
2018-11-05T04:20:10.611Z,2.60
2018-11-05T04:22:39.857Z,2.23
2018-11-05T04:25:09.004Z,2.50
2018-11-05T04:27:38.171Z,3.30
2018-11-05T04:30:10.551Z,2.80
2018-11-05T04:32:39.821Z,2.67
2018-11-05T04:35:09.196Z,3.10
2018-11-05T04:37:38.369Z,3.00
2018-11-05T04:40:08.515Z,2.80
2018-11-05T04:42:37.672Z,3.20
2018-11-05T04:45:08.331Z,3.20
2018-11-05T04:47:37.542Z,3.80
2018-11-05T04:50:07.992Z,2.63
2018-11-05T04:52:37.325Z,3.10
2018-11-05T04:55:06.764Z,3.03
2018-11-05T04:57:36.026Z,3.87
2018-11-05T05:00:10.030Z,3.93
2018-11-05T05:02:40.453Z,3.40
2018-11-05T05:05:10.338Z,3.00
2018-11-05T05:07:39.443Z,2.70
2018-11-05T05:10:09.229Z,3.73
2018-11-05T05:12:39.285Z,4.00
2018-11-05T05:15:08.778Z,3.63
2018-11-05T05:17:38.222Z,3.57
2018-11-05T05:20:09.675Z,3.77
2018-11-05T05:22:38.855Z,3.60
2018-11-05T05:25:07.950Z,4.20
2018-11-05T05:27:36.998Z,4.43
2018-11-05T05:30:09.275Z,4.20
2018-11-05T05:32:38.553Z,4.30
2018-11-05T05:35:07.656Z,4.93
2018-11-05T05:37:36.773Z,4.97
2018-11-05T05:40:06.432Z,5.67
2018-11-05T05:42:35.553Z,5.17
2018-11-05T05:45:05.302Z,5.10
2018-11-05T05:47:34.456Z,4.77
2018-11-05T05:50:04.106Z,6.00
2018-11-05T05:52:33.187Z,5.80
2018-11-05T05:55:02.338Z,5.57
2018-11-05T05:57:31.432Z,5.93
2018-11-05T06:00:00.776Z,6.17
2018-11-05T06:02:29.784Z,6.93
2018-11-05T06:04:58.886Z,6.47
2018-11-05T06:07:27.966Z,8.50
2018-11-05T06:09:56.977Z,7.40
2018-11-05T06:12:26.029Z,7.67
2018-11-05T06:14:55.135Z,8.93
2018-11-05T06:17:24.284Z,9.37
2018-11-05T06:19:53.340Z,9.03
2018-11-05T06:22:22.436Z,9.07
2018-11-05T06:24:51.570Z,8.37
2018-11-05T06:27:20.660Z,8.40
2018-11-05T06:29:50.068Z,8.03
2018-11-05T06:32:19.138Z,8.63
2018-11-05T06:34:48.225Z,9.33
2018-11-05T06:37:17.296Z,9.80
2018-11-05T06:39:46.363Z,9.53
2018-11-05T06:42:15.523Z,8.50
2018-11-05T06:44:44.653Z,9.40
2018-11-05T06:47:13.782Z,9.37
2018-11-05T06:49:42.925Z,9.50
2018-11-05T06:52:12.054Z,9.87
2018-11-05T06:54:41.240Z,9.97
2018-11-05T06:57:10.680Z,9.33
2018-11-05T06:59:39.719Z,9.47
2018-11-05T07:02:08.961Z,9.63
2018-11-05T07:04:38.066Z,9.30
2018-11-05T07:07:07.284Z,10.47
2018-11-05T07:09:36.448Z,10.50
2018-11-05T07:12:05.778Z,10.27
2018-11-05T07:14:34.841Z,10.13
2018-11-05T07:17:03.929Z,10.20
2018-11-05T07:19:33.000Z,10.57
2018-11-05T07:22:02.324Z,10.00
2018-11-05T07:24:31.396Z,9.97
2018-11-05T07:27:00.496Z,10.23
2018-11-05T07:29:29.724Z,9.77
2018-11-05T07:31:58.772Z,10.03
2018-11-05T07:34:27.983Z,10.30
2018-11-05T07:36:56.947Z,10.50
2018-11-05T07:39:26.001Z,10.53
2018-11-05T07:41:55.112Z,11.03
2018-11-05T07:44:24.249Z,11.60
2018-11-05T07:46:53.337Z,12.43
2018-11-05T07:49:22.471Z,10.87
2018-11-05T07:51:51.515Z,11.67
2018-11-05T07:54:20.664Z,12.80
2018-11-05T07:56:49.692Z,11.97
2018-11-05T07:59:18.795Z,12.60
2018-11-05T08:01:47.918Z,11.53
2018-11-05T08:04:17.015Z,11.90
2018-11-05T08:06:46.137Z,12.40
2018-11-05T08:09:15.175Z,10.30
2018-11-05T08:11:44.296Z,11.80
2018-11-05T08:14:13.449Z,11.43
2018-11-05T08:16:42.624Z,11.17
2018-11-05T08:19:11.722Z,11.53
2018-11-05T08:21:40.851Z,11.80
2018-11-05T08:24:09.947Z,12.43
2018-11-05T08:26:39.016Z,11.23
2018-11-05T08:29:08.105Z,10.20
2018-11-05T08:31:37.132Z,11.60
2018-11-05T08:34:06.278Z,10.97
2018-11-05T08:36:35.771Z,10.13
2018-11-05T08:39:07.206Z,12.13
2018-11-05T08:41:36.323Z,10.77
2018-11-05T08:44:06.173Z,11.10
2018-11-05T08:46:35.340Z,11.67
2018-11-05T08:49:04.513Z,11.53
2018-11-05T08:51:34.156Z,11.63
2018-11-05T08:54:03.117Z,11.37
2018-11-05T08:56:32.194Z,11.37
2018-11-05T08:59:01.252Z,11.60
2018-11-05T09:01:32.354Z,11.10
2018-11-05T09:04:01.930Z,10.47
2018-11-05T09:06:31.163Z,10.80
2018-11-05T09:09:00.310Z,10.93
2018-11-05T09:11:29.531Z,10.97
2018-11-05T09:13:58.553Z,10.83
2018-11-05T09:16:27.569Z,10.67
2018-11-05T09:18:56.668Z,9.13
2018-11-05T09:21:25.773Z,9.53
2018-11-05T09:23:54.894Z,9.33
2018-11-05T09:26:23.937Z,7.93
2018-11-05T09:28:53.056Z,7.83
2018-11-05T09:31:22.138Z,7.23
2018-11-05T09:33:51.228Z,6.50
2018-11-05T09:36:20.404Z,6.97
2018-11-05T09:38:49.492Z,6.23
2018-11-05T09:41:18.710Z,6.17
2018-11-05T09:43:47.844Z,5.97
2018-11-05T09:46:16.938Z,5.57
2018-11-05T09:48:46.063Z,5.70
2018-11-05T09:51:15.149Z,4.97
2018-11-05T09:53:44.243Z,5.33
2018-11-05T09:56:13.369Z,4.80
2018-11-05T09:58:42.429Z,5.20
2018-11-05T10:01:11.522Z,4.50
2018-11-05T10:03:45.885Z,4.30
2018-11-05T10:06:14.934Z,4.63
2018-11-05T10:08:43.997Z,4.50
2018-11-05T10:11:13.089Z,4.90
2018-11-05T10:13:42.305Z,4.83
2018-11-05T10:16:11.400Z,4.90
2018-11-05T10:18:40.510Z,4.67
2018-11-05T10:21:09.552Z,4.87
2018-11-05T10:23:38.632Z,4.97
2018-11-05T10:26:07.864Z,5.20
2018-11-05T10:28:36.989Z,4.70
2018-11-05T10:31:06.168Z,4.47
2018-11-05T10:33:35.396Z,4.70
2018-11-05T10:36:04.597Z,4.83
2018-11-05T10:38:33.800Z,5.00
2018-11-05T10:41:02.921Z,4.27
2018-11-05T10:43:32.000Z,5.60
2018-11-05T10:46:01.062Z,4.33
2018-11-05T10:48:30.171Z,5.20
2018-11-05T10:50:59.281Z,4.60
2018-11-05T10:53:28.373Z,4.90
2018-11-05T10:55:57.493Z,5.07
2018-11-05T10:58:26.600Z,5.13
2018-11-05T11:01:00.828Z,4.93
2018-11-05T11:03:34.819Z,4.67
2018-11-05T11:06:05.432Z,4.83
2018-11-05T11:08:34.579Z,5.03
2018-11-05T11:11:03.680Z,5.50
2018-11-05T11:13:32.698Z,5.00
2018-11-05T11:16:01.712Z,5.37
2018-11-05T11:18:30.792Z,5.87
2018-11-05T11:21:00.841Z,6.27
2018-11-05T11:23:30.032Z,5.73
2018-11-05T11:25:59.104Z,5.37
2018-11-05T11:28:28.216Z,6.80
2018-11-05T11:30:57.285Z,6.00
2018-11-05T11:33:26.443Z,6.73
2018-11-05T11:35:55.605Z,7.07
2018-11-05T11:38:24.665Z,6.53
2018-11-05T11:40:53.693Z,6.37
2018-11-05T11:43:22.757Z,7.23
2018-11-05T11:45:51.861Z,6.13
2018-11-05T11:48:20.965Z,7.40
2018-11-05T11:50:50.120Z,7.50
2018-11-05T11:53:19.325Z,7.23
2018-11-05T11:55:48.430Z,6.83
2018-11-05T11:58:17.493Z,6.63
2018-11-05T12:00:46.878Z,8.37
2018-11-05T12:03:15.971Z,7.20
2018-11-05T12:05:45.107Z,6.40
2018-11-05T12:08:14.236Z,7.13
2018-11-05T12:10:43.336Z,7.53
2018-11-05T12:13:12.380Z,7.23
2018-11-05T12:15:41.382Z,8.00
2018-11-05T12:18:10.528Z,7.43
2018-11-05T12:20:39.731Z,7.07
2018-11-05T12:23:08.781Z,7.13
2018-11-05T12:25:37.928Z,6.53
2018-11-05T12:28:07.099Z,7.03
2018-11-05T12:30:36.137Z,7.67
2018-11-05T12:33:05.449Z,7.87
2018-11-05T12:35:34.508Z,6.40
2018-11-05T12:38:03.604Z,7.27
2018-11-05T12:40:32.687Z,7.87
2018-11-05T12:43:01.808Z,7.43
2018-11-05T12:45:30.876Z,7.43
2018-11-05T12:48:00.050Z,7.17
2018-11-05T12:50:29.228Z,7.20
2018-11-05T12:52:58.273Z,7.60
2018-11-05T12:55:27.351Z,7.77
2018-11-05T12:57:56.399Z,7.70
2018-11-05T13:00:26.188Z,7.57
2018-11-05T13:02:59.450Z,7.87
2018-11-05T13:05:29.903Z,7.70
2018-11-05T13:07:58.988Z,8.57
2018-11-05T13:10:28.049Z,7.63
2018-11-05T13:12:57.147Z,7.20
2018-11-05T13:15:26.573Z,7.70
2018-11-05T13:17:55.549Z,8.03
2018-11-05T13:20:25.038Z,8.20
2018-11-05T13:22:54.098Z,9.10
2018-11-05T13:25:23.150Z,7.97
2018-11-05T13:27:52.667Z,8.73
2018-11-05T13:30:21.804Z,8.40
2018-11-05T13:32:50.934Z,7.80
2018-11-05T13:35:21.293Z,7.80
2018-11-05T13:37:50.928Z,8.20
2018-11-05T13:40:20.778Z,8.27
2018-11-05T13:42:50.455Z,8.50
2018-11-05T13:45:20.117Z,7.30
2018-11-05T13:47:50.273Z,9.63
2018-11-05T13:50:19.267Z,9.33
2018-11-05T13:52:48.075Z,10.27
2018-11-05T13:55:17.857Z,10.30
2018-11-05T13:57:48.119Z,11.07
2018-11-05T14:00:18.579Z,10.93
2018-11-05T14:02:47.689Z,11.57
2018-11-05T14:05:16.738Z,10.90
2018-11-05T14:07:45.851Z,10.93
2018-11-05T14:10:18.705Z,10.50
2018-11-05T14:12:48.360Z,11.30
2018-11-05T14:15:17.498Z,11.27
2018-11-05T14:17:46.815Z,11.20
2018-11-05T14:20:17.195Z,12.07
2018-11-05T14:22:46.257Z,11.37
2018-11-05T14:25:16.665Z,11.00
2018-11-05T14:27:47.297Z,11.03
2018-11-05T14:30:16.776Z,11.17
2018-11-05T14:32:46.720Z,11.10
2018-11-05T14:35:15.891Z,11.10
2018-11-05T14:37:44.929Z,10.60
2018-11-05T14:40:15.607Z,12.03
2018-11-05T14:42:44.809Z,11.40
2018-11-05T14:45:15.191Z,10.30
2018-11-05T14:47:45.215Z,10.80
2018-11-05T14:50:16.051Z,10.80
2018-11-05T14:52:45.175Z,11.23
2018-11-05T14:55:15.927Z,11.37
2018-11-05T14:57:46.057Z,10.67
2018-11-05T15:00:17.355Z,11.67
2018-11-05T15:02:47.319Z,12.50
2018-11-05T15:05:16.885Z,11.37
2018-11-05T15:07:46.813Z,12.40
2018-11-05T15:10:18.043Z,12.33
2018-11-05T15:12:47.184Z,13.30
2018-11-05T15:15:17.114Z,12.23
2018-11-05T15:17:46.652Z,13.93
2018-11-05T15:20:17.427Z,14.20
2018-11-05T15:22:46.387Z,15.67
2018-11-05T15:25:15.806Z,16.10
2018-11-05T15:27:44.974Z,17.20
2018-11-05T15:30:16.484Z,19.63
2018-11-05T15:32:45.812Z,19.47
2018-11-05T15:35:15.120Z,21.97
2018-11-05T15:37:44.732Z,21.87
2018-11-05T15:40:15.911Z,22.37
2018-11-05T15:42:45.188Z,21.07
2018-11-05T15:45:16.631Z,19.80
2018-11-05T15:47:45.772Z,21.33
2018-11-05T15:50:16.235Z,21.03
2018-11-05T15:52:45.720Z,23.00
2018-11-05T15:55:14.734Z,20.83
2018-11-05T15:57:43.852Z,22.33
2018-11-05T16:00:24.159Z,23.00
2018-11-05T16:02:58.697Z,20.33
2018-11-05T16:05:27.902Z,20.10
2018-11-05T16:07:57.804Z,21.23
2018-11-05T16:10:26.931Z,20.30
2018-11-05T16:12:56.054Z,18.40
2018-11-05T16:15:25.260Z,18.87
2018-11-05T16:17:54.382Z,18.10
2018-11-05T16:20:24.133Z,17.97
2018-11-05T16:22:53.578Z,20.47
2018-11-05T16:25:22.657Z,20.37
2018-11-05T16:27:51.804Z,18.43
2018-11-05T16:30:21.805Z,23.20
2018-11-05T16:32:51.772Z,21.23
2018-11-05T16:35:20.930Z,21.93
2018-11-05T16:37:50.079Z,20.80
2018-11-05T16:40:19.920Z,21.73
2018-11-05T16:42:50.323Z,21.90
2018-11-05T16:45:19.441Z,21.87
2018-11-05T16:47:48.915Z,20.23
2018-11-05T16:50:24.747Z,19.70
2018-11-05T16:52:53.992Z,19.57
2018-11-05T16:55:23.409Z,18.80
2018-11-05T16:57:52.521Z,18.40
2018-11-05T17:00:21.603Z,17.87
2018-11-05T17:02:50.955Z,18.17
2018-11-05T17:05:20.140Z,18.63
2018-11-05T17:07:49.276Z,17.90
2018-11-05T17:10:18.464Z,16.53
2018-11-05T17:12:47.697Z,16.83
2018-11-05T17:15:17.534Z,15.80
2018-11-05T17:17:46.715Z,17.13
2018-11-05T17:20:16.979Z,17.63
2018-11-05T17:22:47.104Z,18.17
2018-11-05T17:25:16.776Z,16.37
2018-11-05T17:27:46.577Z,16.77
2018-11-05T17:30:18.421Z,15.53
2018-11-05T17:32:47.583Z,16.80
2018-11-05T17:35:16.946Z,17.20
2018-11-05T17:37:46.595Z,16.40
2018-11-05T17:40:17.748Z,15.40
2018-11-05T17:42:46.807Z,16.57
2018-11-05T17:45:17.210Z,15.90
2018-11-05T17:47:46.677Z,16.13
2018-11-05T17:50:17.165Z,16.10
2018-11-05T17:52:46.294Z,15.73
2018-11-05T17:55:15.755Z,15.63
2018-11-05T17:57:45.984Z,16.23
2018-11-05T18:00:17.545Z,15.23
2018-11-05T18:02:46.794Z,16.73
2018-11-05T18:05:15.918Z,15.47
2018-11-05T18:07:45.281Z,14.87
2018-11-05T18:10:14.388Z,15.73
2018-11-05T18:12:43.544Z,15.73
2018-11-05T18:15:13.321Z,14.90
2018-11-05T18:17:43.567Z,15.73
2018-11-05T18:20:13.791Z,15.77
2018-11-05T18:22:43.112Z,15.20
2018-11-05T18:25:14.777Z,15.70
2018-11-05T18:27:44.210Z,14.63
2018-11-05T18:30:14.148Z,14.93
2018-11-05T18:32:43.271Z,15.20
2018-11-05T18:35:13.476Z,15.27
2018-11-05T18:37:43.552Z,15.23
2018-11-05T18:40:14.145Z,15.10
2018-11-05T18:42:43.699Z,15.73
2018-11-05T18:45:13.369Z,16.20
2018-11-05T18:47:42.502Z,15.90
2018-11-05T18:50:13.438Z,15.27
2018-11-05T18:52:42.847Z,14.53
2018-11-05T18:55:13.391Z,15.23
2018-11-05T18:57:42.569Z,15.37
2018-11-05T19:00:24.835Z,14.80
2018-11-05T19:02:54.900Z,14.17
2018-11-05T19:05:25.288Z,14.27
2018-11-05T19:07:54.468Z,15.30
2018-11-05T19:10:23.639Z,13.87
2018-11-05T19:12:54.996Z,14.17
2018-11-05T19:15:24.153Z,14.80
2018-11-05T19:17:53.249Z,13.97
2018-11-05T19:20:22.416Z,14.57
2018-11-05T19:22:51.661Z,13.53
2018-11-05T19:25:20.838Z,13.40
2018-11-05T19:27:50.067Z,13.97
2018-11-05T19:30:27.184Z,14.20
2018-11-05T19:32:56.235Z,14.07
2018-11-05T19:35:25.277Z,13.73
2018-11-05T19:37:54.402Z,13.57
2018-11-05T19:40:23.657Z,14.10
2018-11-05T19:42:52.799Z,13.50
2018-11-05T19:45:23.221Z,14.70
2018-11-05T19:47:52.320Z,13.87
2018-11-05T19:50:22.953Z,12.83
2018-11-05T19:52:52.855Z,13.93
2018-11-05T19:55:22.262Z,14.80
2018-11-05T19:57:52.244Z,13.40
2018-11-05T20:00:23.866Z,14.67
2018-11-05T20:02:53.624Z,15.80
2018-11-05T20:05:22.899Z,16.17
2018-11-05T20:07:52.696Z,18.17
2018-11-05T20:10:21.792Z,17.20
2018-11-05T20:12:51.007Z,18.53
2018-11-05T20:15:20.189Z,20.13
2018-11-05T20:17:50.368Z,22.50
2018-11-05T20:20:20.875Z,20.70
2018-11-05T20:22:50.016Z,22.50
2018-11-05T20:25:19.479Z,22.07
2018-11-05T20:27:48.645Z,22.57
2018-11-05T20:30:20.556Z,23.10
2018-11-05T20:32:51.250Z,23.50
2018-11-05T20:35:20.480Z,23.80
2018-11-05T20:37:50.520Z,22.57
2018-11-05T20:40:21.431Z,22.13
2018-11-05T20:42:52.362Z,21.83
2018-11-05T20:45:23.613Z,21.80
2018-11-05T20:47:54.300Z,21.00
2018-11-05T20:50:25.449Z,19.47
2018-11-05T20:52:55.678Z,18.20
2018-11-05T20:55:25.928Z,19.80
2018-11-05T20:57:56.241Z,18.43
2018-11-05T21:00:26.386Z,18.20
2018-11-05T21:02:56.432Z,19.03
2018-11-05T21:05:26.363Z,18.30
2018-11-05T21:07:56.207Z,18.63
2018-11-05T21:10:26.003Z,17.20
2018-11-05T21:12:55.697Z,17.43
2018-11-05T21:15:25.344Z,17.50
2018-11-05T21:17:55.102Z,17.60
2018-11-05T21:20:24.522Z,17.57
2018-11-05T21:22:54.258Z,17.30
2018-11-05T21:25:23.602Z,17.50
2018-11-05T21:27:52.687Z,18.83
2018-11-05T21:30:22.295Z,18.87
2018-11-05T21:32:51.386Z,17.80
2018-11-05T21:35:21.417Z,19.23
2018-11-05T21:37:50.540Z,18.53
2018-11-05T21:40:20.071Z,18.57
2018-11-05T21:42:49.236Z,18.97
2018-11-05T21:45:18.447Z,19.10
2018-11-05T21:47:47.548Z,18.93
2018-11-05T21:50:17.805Z,18.80
2018-11-05T21:52:50.291Z,18.83
2018-11-05T21:55:19.488Z,18.30
2018-11-05T21:57:49.473Z,18.47
2018-11-05T22:00:21.592Z,18.73
2018-11-05T22:02:56.006Z,18.17
2018-11-05T22:05:25.138Z,17.93
2018-11-05T22:07:54.279Z,17.87
2018-11-05T22:10:23.485Z,18.97
2018-11-05T22:12:52.568Z,19.27
2018-11-05T22:15:21.717Z,18.30
2018-11-05T22:17:50.757Z,18.23
2018-11-05T22:20:19.802Z,18.23
2018-11-05T22:22:48.931Z,17.07
2018-11-05T22:25:18.035Z,18.50
2018-11-05T22:27:47.121Z,17.30
2018-11-05T22:30:16.293Z,18.30
2018-11-05T22:32:45.525Z,17.80
2018-11-05T22:35:14.721Z,17.03
2018-11-05T22:37:43.878Z,16.60
2018-11-05T22:40:14.196Z,17.10
2018-11-05T22:42:43.299Z,18.23
2018-11-05T22:45:13.711Z,16.00
2018-11-05T22:47:43.520Z,16.47
2018-11-05T22:50:12.608Z,17.23
2018-11-05T22:52:42.418Z,18.57
2018-11-05T22:55:11.663Z,17.93
2018-11-05T22:57:40.703Z,16.30
2018-11-05T23:00:17.966Z,16.30
2018-11-05T23:02:53.050Z,16.73
2018-11-05T23:05:22.233Z,16.20
2018-11-05T23:07:52.240Z,15.90
2018-11-05T23:10:21.703Z,16.47
2018-11-05T23:12:50.849Z,15.63
2018-11-05T23:15:20.645Z,15.60
2018-11-05T23:17:50.067Z,15.73
2018-11-05T23:20:19.226Z,16.87
2018-11-05T23:22:48.303Z,16.90
2018-11-05T23:25:17.331Z,15.63
2018-11-05T23:27:46.372Z,16.87
2018-11-05T23:30:15.550Z,15.80
2018-11-05T23:32:44.647Z,15.23
2018-11-05T23:35:13.788Z,16.03
2018-11-05T23:37:42.976Z,16.03
2018-11-05T23:40:12.082Z,15.20
2018-11-05T23:42:41.226Z,15.90
2018-11-05T23:45:12.845Z,15.20
2018-11-05T23:47:42.056Z,15.03
2018-11-05T23:50:11.680Z,16.33
2018-11-05T23:52:40.893Z,16.07
2018-11-05T23:55:10.890Z,16.00
2018-11-05T23:57:39.968Z,14.97
